Aérodrome :
LOGIN :

S'inscrire | Disclaimer

   EN    FR    IT 

 










Légende :    VFR   VFR Marginal   IFR   IFR Intensif   IFR Très Intensif
Visi : 
Plafond : 
>= 8 km
>= 3000ft
5 à 8 km
1000 à 3000 ft
1500m à 5 km
500 à 1000 ft
800 à 1500m
200 à 500 ft
< 800m
< 200 ft
Symboles :   Orages  Brouillard  Fortes neiges  Fortes précipitations  Vent > 20 kt
SIGMETs :   Divers  Orages  Givrage  Turbulence  Onde Orograph.  Cendres Volcan.






- Altitude de l'aérodrome : 400 ft
- Code IATA : BNX


LQBK - Banja Luka

DERNIER METAR :
  • 270630Z 17003KT 9999 FEW047 18/17 Q1017 NOSIG

METARs EXPIRÉS :
  • 270600Z 17002KT 9999 FEW047 17/17 Q1017 NOSIG
  • 270530Z 15002KT 9999 FEW047 16/16 Q1017 NOSIG
  • 270500Z VRB02KT 9999 FEW045 16/16 Q1017 NOSIG
  • 270430Z 26003KT 220V330 9999 FEW045 16/16 Q1017 NOSIG
  • 270400Z 03003KT 020V080 CAVOK 17/17 Q1017 NOSIG

TAF TAF LQBK
Valide du 27 à 06h jusqu'au 28 à 06h UTC


270500Z 2706/2806 30005KT 9999 SCT040 TX26/2712Z TN14/2804Z
PROB40
TEMPO 2711/2719 36012KT TSRA FEW030CB SCT040



MET'MAP, la Météo Aéronautique d'un coup d'oeil ! - Copyright ORBIFLY Décembre 2007 - Disclaimer

ORBIFLY MET'MAP TEAM :

Programmation & Développement : Alexandra Zaïnal
Sur une idée originale de : Baudouin d'Aumeries
Assistance à la programmation : Marc-Olivier Méhu
Soutien technique & logistique : Manuel Goepfert

Contact : metmap@orbifly.com




SOURCES & CREDITS :

   NOAA